sensor_id;sensor_type;location;lat;lon;timestamp;temperature;humidity
19483;DHT22;9882;51.166;6.992;2022-09-09T04:01:02;18.30;99.90
19483;DHT22;9882;51.166;6.992;2022-09-09T04:03:32;18.30;99.90
19483;DHT22;9882;51.166;6.992;2022-09-09T04:06:02;18.20;99.90
19483;DHT22;9882;51.166;6.992;2022-09-09T04:08:33;18.30;99.90
19483;DHT22;9882;51.166;6.992;2022-09-09T04:11:03;18.10;99.90
19483;DHT22;9882;51.166;6.992;2022-09-09T04:13:35;18.10;99.90
19483;DHT22;9882;51.166;6.992;2022-09-09T04:16:07;17.80;99.90
19483;DHT22;9882;51.166;6.992;2022-09-09T04:18:37;17.90;99.90
19483;DHT22;9882;51.166;6.992;2022-09-09T04:21:08;17.90;99.90
19483;DHT22;9882;51.166;6.992;2022-09-09T04:23:37;17.80;99.90
19483;DHT22;9882;51.166;6.992;2022-09-09T04:26:06;17.70;99.90
19483;DHT22;9882;51.166;6.992;2022-09-09T04:28:35;17.90;99.90
19483;DHT22;9882;51.166;6.992;2022-09-09T04:31:15;17.70;99.90
19483;DHT22;9882;51.166;6.992;2022-09-09T04:33:46;17.90;99.90
19483;DHT22;9882;51.166;6.992;2022-09-09T04:36:16;18.00;99.90
19483;DHT22;9882;51.166;6.992;2022-09-09T04:38:46;17.80;99.90
19483;DHT22;9882;51.166;6.992;2022-09-09T04:41:16;17.70;99.90
19483;DHT22;9882;51.166;6.992;2022-09-09T04:43:47;17.60;99.90
19483;DHT22;9882;51.166;6.992;2022-09-09T04:46:18;17.60;99.90
19483;DHT22;9882;51.166;6.992;2022-09-09T04:48:48;17.80;99.90
19483;DHT22;9882;51.166;6.992;2022-09-09T04:51:19;17.90;99.90
19483;DHT22;9882;51.166;6.992;2022-09-09T04:53:50;18.00;99.90
19483;DHT22;9882;51.166;6.992;2022-09-09T04:56:21;17.90;99.90
19483;DHT22;9882;51.166;6.992;2022-09-09T04:58:55;17.90;99.90
19483;DHT22;9882;51.166;6.992;2022-09-09T05:01:35;17.90;99.90
19483;DHT22;9882;51.166;6.992;2022-09-09T05:04:05;17.90;99.90
19483;DHT22;9882;51.166;6.992;2022-09-09T05:06:34;17.90;99.90
19483;DHT22;9882;51.166;6.992;2022-09-09T05:09:05;17.80;99.90
19483;DHT22;9882;51.166;6.992;2022-09-09T05:11:35;17.80;99.90
19483;DHT22;9882;51.166;6.992;2022-09-09T05:14:15;17.80;99.90
19483;DHT22;9882;51.166;6.992;2022-09-09T05:16:47;17.90;99.90
19483;DHT22;9882;51.166;6.992;2022-09-09T05:19:18;17.80;99.90
19483;DHT22;9882;51.166;6.992;2022-09-09T05:21:49;17.80;99.90
19483;DHT22;9882;51.166;6.992;2022-09-09T05:24:23;17.80;99.90
19483;DHT22;9882;51.166;6.992;2022-09-09T05:26:55;17.90;99.90
19483;DHT22;9882;51.166;6.992;2022-09-09T05:29:26;17.80;99.90
19483;DHT22;9882;51.166;6.992;2022-09-09T05:31:58;17.80;99.90
19483;DHT22;9882;51.166;6.992;2022-09-09T05:34:26;17.60;99.90
19483;DHT22;9882;51.166;6.992;2022-09-09T05:36:55;17.60;99.90
19483;DHT22;9882;51.166;6.992;2022-09-09T05:39:25;17.40;99.90
19483;DHT22;9882;51.166;6.992;2022-09-09T05:41:54;17.60;99.90
19483;DHT22;9882;51.166;6.992;2022-09-09T05:44:23;17.50;99.90
19483;DHT22;9882;51.166;6.992;2022-09-09T05:46:55;17.70;99.90
19483;DHT22;9882;51.166;6.992;2022-09-09T05:49:26;17.60;99.90
19483;DHT22;9882;51.166;6.992;2022-09-09T05:51:55;17.70;99.90
19483;DHT22;9882;51.166;6.992;2022-09-09T05:54:24;17.60;99.90
19483;DHT22;9882;51.166;6.992;2022-09-09T05:56:55;17.70;99.90
19483;DHT22;9882;51.166;6.992;2022-09-09T05:59:23;17.60;99.90
19483;DHT22;9882;51.166;6.992;2022-09-09T06:01:55;17.70;99.90
19483;DHT22;9882;51.166;6.992;2022-09-09T06:04:32;17.70;99.90
19483;DHT22;9882;51.166;6.992;2022-09-09T06:07:02;17.70;99.90
19483;DHT22;9882;51.166;6.992;2022-09-09T06:09:31;17.60;99.90
19483;DHT22;9882;51.166;6.992;2022-09-09T06:12:02;17.50;99.90
19483;DHT22;9882;51.166;6.992;2022-09-09T06:14:50;17.60;99.90
19483;DHT22;9882;51.166;6.992;2022-09-09T06:17:19;17.60;99.90
19483;DHT22;9882;51.166;6.992;2022-09-09T06:19:50;17.70;99.90
19483;DHT22;9882;51.166;6.992;2022-09-09T06:22:19;17.70;99.90
19483;DHT22;9882;51.166;6.992;2022-09-09T06:24:48;17.50;99.90
19483;DHT22;9882;51.166;6.992;2022-09-09T06:27:18;17.60;99.90
19483;DHT22;9882;51.166;6.992;2022-09-09T06:29:47;17.50;99.90
19483;DHT22;9882;51.166;6.992;2022-09-09T06:32:17;17.50;99.90
19483;DHT22;9882;51.166;6.992;2022-09-09T06:34:46;17.50;99.90
19483;DHT22;9882;51.166;6.992;2022-09-09T06:37:18;17.60;99.90
19483;DHT22;9882;51.166;6.992;2022-09-09T06:39:50;17.40;99.90
19483;DHT22;9882;51.166;6.992;2022-09-09T06:42:19;17.50;99.90
19483;DHT22;9882;51.166;6.992;2022-09-09T06:45:18;17.40;99.90
19483;DHT22;9882;51.166;6.992;2022-09-09T06:47:55;17.50;99.90
19483;DHT22;9882;51.166;6.992;2022-09-09T06:50:24;17.40;99.90
19483;DHT22;9882;51.166;6.992;2022-09-09T06:52:55;17.40;99.90
19483;DHT22;9882;51.166;6.992;2022-09-09T06:55:24;17.40;99.90
19483;DHT22;9882;51.166;6.992;2022-09-09T06:57:53;17.40;99.90
19483;DHT22;9882;51.166;6.992;2022-09-09T07:00:23;17.40;99.90
19483;DHT22;9882;51.166;6.992;2022-09-09T07:02:53;17.50;99.90
19483;DHT22;9882;51.166;6.992;2022-09-09T07:05:22;17.40;99.90
19483;DHT22;9882;51.166;6.992;2022-09-09T07:07:54;17.50;99.90
19483;DHT22;9882;51.166;6.992;2022-09-09T07:10:24;17.50;99.90
19483;DHT22;9882;51.166;6.992;2022-09-09T07:12:53;17.50;99.90
19483;DHT22;9882;51.166;6.992;2022-09-09T07:15:25;17.50;99.90
19483;DHT22;9882;51.166;6.992;2022-09-09T07:17:54;17.50;99.90
19483;DHT22;9882;51.166;6.992;2022-09-09T07:20:23;17.50;99.90
19483;DHT22;9882;51.166;6.992;2022-09-09T07:22:56;17.50;99.90
19483;DHT22;9882;51.166;6.992;2022-09-09T07:25:26;17.50;99.90
19483;DHT22;9882;51.166;6.992;2022-09-09T07:27:57;17.50;99.90
19483;DHT22;9882;51.166;6.992;2022-09-09T07:30:26;17.50;99.90
19483;DHT22;9882;51.166;6.992;2022-09-09T07:32:57;17.50;99.90
19483;DHT22;9882;51.166;6.992;2022-09-09T07:35:27;17.50;99.90
19483;DHT22;9882;51.166;6.992;2022-09-09T07:38:00;17.50;99.90
19483;DHT22;9882;51.166;6.992;2022-09-09T07:40:29;17.60;99.90
19483;DHT22;9882;51.166;6.992;2022-09-09T07:42:59;17.60;99.90
19483;DHT22;9882;51.166;6.992;2022-09-09T07:45:28;17.70;99.90
19483;DHT22;9882;51.166;6.992;2022-09-09T07:47:58;17.80;99.90
19483;DHT22;9882;51.166;6.992;2022-09-09T07:50:28;17.80;99.90
19483;DHT22;9882;51.166;6.992;2022-09-09T07:52:58;17.80;99.90
19483;DHT22;9882;51.166;6.992;2022-09-09T07:55:28;17.90;99.90
19483;DHT22;9882;51.166;6.992;2022-09-09T07:57:58;17.90;99.90
19483;DHT22;9882;51.166;6.992;2022-09-09T08:00:26;18.00;99.90
19483;DHT22;9882;51.166;6.992;2022-09-09T08:02:57;18.00;99.90
19483;DHT22;9882;51.166;6.992;2022-09-09T08:05:30;18.10;99.90
19483;DHT22;9882;51.166;6.992;2022-09-09T08:08:00;18.10;99.90
19483;DHT22;9882;51.166;6.992;2022-09-09T08:10:31;18.10;99.90
19483;DHT22;9882;51.166;6.992;2022-09-09T08:13:02;18.10;99.90
19483;DHT22;9882;51.166;6.992;2022-09-09T08:15:47;18.10;99.90
19483;DHT22;9882;51.166;6.992;2022-09-09T08:18:18;18.10;99.90
19483;DHT22;9882;51.166;6.992;2022-09-09T08:20:47;18.10;99.90
19483;DHT22;9882;51.166;6.992;2022-09-09T08:23:17;18.00;99.90
19483;DHT22;9882;51.166;6.992;2022-09-09T08:25:47;18.00;99.90
19483;DHT22;9882;51.166;6.992;2022-09-09T08:28:16;18.00;99.90
19483;DHT22;9882;51.166;6.992;2022-09-09T08:30:45;18.10;99.90
19483;DHT22;9882;51.166;6.992;2022-09-09T08:33:16;18.10;99.90
19483;DHT22;9882;51.166;6.992;2022-09-09T08:35:50;18.00;99.90
19483;DHT22;9882;51.166;6.992;2022-09-09T08:38:21;18.00;99.90
19483;DHT22;9882;51.166;6.992;2022-09-09T08:40:50;18.10;99.90
19483;DHT22;9882;51.166;6.992;2022-09-09T08:43:21;18.10;99.90
19483;DHT22;9882;51.166;6.992;2022-09-09T08:45:59;18.20;99.90
19483;DHT22;9882;51.166;6.992;2022-09-09T08:48:43;18.30;99.90
19483;DHT22;9882;51.166;6.992;2022-09-09T08:51:15;18.30;99.90
19483;DHT22;9882;51.166;6.992;2022-09-09T08:53:49;18.30;99.90
19483;DHT22;9882;51.166;6.992;2022-09-09T08:56:24;18.30;99.90
19483;DHT22;9882;51.166;6.992;2022-09-09T08:59:00;18.30;99.90
19483;DHT22;9882;51.166;6.992;2022-09-09T09:01:59;18.30;99.90
19483;DHT22;9882;51.166;6.992;2022-09-09T09:04:54;18.30;99.90
19483;DHT22;9882;51.166;6.992;2022-09-09T09:07:35;18.30;99.90
19483;DHT22;9882;51.166;6.992;2022-09-09T09:10:16;18.30;99.90
19483;DHT22;9882;51.166;6.992;2022-09-09T09:13:10;18.30;99.90
19483;DHT22;9882;51.166;6.992;2022-09-09T09:15:41;18.40;99.90
19483;DHT22;9882;51.166;6.992;2022-09-09T09:18:12;18.50;99.90
19483;DHT22;9882;51.166;6.992;2022-09-09T09:20:51;18.60;99.90
19483;DHT22;9882;51.166;6.992;2022-09-09T09:23:25;18.60;99.90
19483;DHT22;9882;51.166;6.992;2022-09-09T09:26:00;18.60;99.90
19483;DHT22;9882;51.166;6.992;2022-09-09T09:28:32;18.60;99.90
19483;DHT22;9882;51.166;6.992;2022-09-09T09:31:10;18.60;99.90
19483;DHT22;9882;51.166;6.992;2022-09-09T09:33:47;18.60;99.90
19483;DHT22;9882;51.166;6.992;2022-09-09T09:36:19;18.60;99.90
19483;DHT22;9882;51.166;6.992;2022-09-09T09:38:54;18.60;99.90
19483;DHT22;9882;51.166;6.992;2022-09-09T09:41:47;18.60;99.90
19483;DHT22;9882;51.166;6.992;2022-09-09T09:44:23;18.60;99.90
19483;DHT22;9882;51.166;6.992;2022-09-09T09:47:04;18.60;99.90
19483;DHT22;9882;51.166;6.992;2022-09-09T09:49:34;18.60;99.90
19483;DHT22;9882;51.166;6.992;2022-09-09T09:52:03;18.60;99.90
19483;DHT22;9882;51.166;6.992;2022-09-09T09:54:37;18.70;99.90
19483;DHT22;9882;51.166;6.992;2022-09-09T09:57:11;18.70;99.90
19483;DHT22;9882;51.166;6.992;2022-09-09T09:59:46;18.90;99.90
19483;DHT22;9882;51.166;6.992;2022-09-09T10:02:25;18.90;99.90
19483;DHT22;9882;51.166;6.992;2022-09-09T10:05:13;19.00;99.90
19483;DHT22;9882;51.166;6.992;2022-09-09T10:07:47;19.10;99.90
19483;DHT22;9882;51.166;6.992;2022-09-09T10:10:38;19.10;99.90
19483;DHT22;9882;51.166;6.992;2022-09-09T10:13:17;19.20;99.90
19483;DHT22;9882;51.166;6.992;2022-09-09T10:15:54;19.30;99.90
19483;DHT22;9882;51.166;6.992;2022-09-09T10:18:49;19.20;99.90
19483;DHT22;9882;51.166;6.992;2022-09-09T10:21:41;19.10;99.90
19483;DHT22;9882;51.166;6.992;2022-09-09T10:24:32;19.20;99.90
19483;DHT22;9882;51.166;6.992;2022-09-09T10:27:10;19.30;99.90
19483;DHT22;9882;51.166;6.992;2022-09-09T10:30:00;19.40;99.90
19483;DHT22;9882;51.166;6.992;2022-09-09T10:32:37;19.50;99.90
19483;DHT22;9882;51.166;6.992;2022-09-09T10:35:12;19.50;99.90
19483;DHT22;9882;51.166;6.992;2022-09-09T10:37:54;19.60;99.90
19483;DHT22;9882;51.166;6.992;2022-09-09T10:40:32;19.60;99.90
19483;DHT22;9882;51.166;6.992;2022-09-09T10:43:11;19.80;99.90
19483;DHT22;9882;51.166;6.992;2022-09-09T10:45:53;19.80;99.90
19483;DHT22;9882;51.166;6.992;2022-09-09T10:48:48;19.80;99.90
19483;DHT22;9882;51.166;6.992;2022-09-09T10:51:25;19.70;99.90
19483;DHT22;9882;51.166;6.992;2022-09-09T10:54:09;19.80;99.90
19483;DHT22;9882;51.166;6.992;2022-09-09T10:56:42;19.80;99.90
19483;DHT22;9882;51.166;6.992;2022-09-09T10:59:16;19.80;99.90
19483;DHT22;9882;51.166;6.992;2022-09-09T11:01:53;19.80;99.90
19483;DHT22;9882;51.166;6.992;2022-09-09T11:04:28;19.70;99.90
19483;DHT22;9882;51.166;6.992;2022-09-09T11:07:01;19.70;99.90
19483;DHT22;9882;51.166;6.992;2022-09-09T11:09:40;19.70;99.90
19483;DHT22;9882;51.166;6.992;2022-09-09T11:12:15;19.60;99.90
19483;DHT22;9882;51.166;6.992;2022-09-09T11:14:49;19.70;99.90
19483;DHT22;9882;51.166;6.992;2022-09-09T11:17:24;19.80;99.90
19483;DHT22;9882;51.166;6.992;2022-09-09T11:19:55;19.80;99.90
19483;DHT22;9882;51.166;6.992;2022-09-09T11:22:31;19.90;99.90
19483;DHT22;9882;51.166;6.992;2022-09-09T11:25:06;19.90;99.90
19483;DHT22;9882;51.166;6.992;2022-09-09T11:27:43;19.80;99.90
19483;DHT22;9882;51.166;6.992;2022-09-09T11:30:18;19.70;99.90
19483;DHT22;9882;51.166;6.992;2022-09-09T11:36:23;19.80;99.90
19483;DHT22;9882;51.166;6.992;2022-09-09T11:39:01;19.60;99.90
19483;DHT22;9882;51.166;6.992;2022-09-09T11:41:35;19.60;99.90
19483;DHT22;9882;51.166;6.992;2022-09-09T11:44:11;19.50;99.90
19483;DHT22;9882;51.166;6.992;2022-09-09T11:46:41;19.30;99.90
19483;DHT22;9882;51.166;6.992;2022-09-09T11:49:27;19.20;99.90
19483;DHT22;9882;51.166;6.992;2022-09-09T11:51:58;19.20;99.90
19483;DHT22;9882;51.166;6.992;2022-09-09T11:54:29;19.30;99.90
19483;DHT22;9882;51.166;6.992;2022-09-09T11:56:58;19.30;99.90
19483;DHT22;9882;51.166;6.992;2022-09-09T11:59:29;19.30;99.90
19483;DHT22;9882;51.166;6.992;2022-09-09T12:02:00;19.40;99.90
19483;DHT22;9882;51.166;6.992;2022-09-09T12:04:37;19.40;99.90
19483;DHT22;9882;51.166;6.992;2022-09-09T12:07:31;19.30;99.90
19483;DHT22;9882;51.166;6.992;2022-09-09T12:10:04;19.30;99.90
19483;DHT22;9882;51.166;6.992;2022-09-09T12:12:35;19.20;99.90
19483;DHT22;9882;51.166;6.992;2022-09-09T12:15:26;19.30;99.90
19483;DHT22;9882;51.166;6.992;2022-09-09T12:17:57;19.30;99.90
19483;DHT22;9882;51.166;6.992;2022-09-09T12:20:36;19.20;99.90
19483;DHT22;9882;51.166;6.992;2022-09-09T12:23:18;19.30;99.90
19483;DHT22;9882;51.166;6.992;2022-09-09T12:25:58;19.30;99.90
19483;DHT22;9882;51.166;6.992;2022-09-09T12:28:50;19.30;99.90
19483;DHT22;9882;51.166;6.992;2022-09-09T12:31:24;19.30;99.90
19483;DHT22;9882;51.166;6.992;2022-09-09T12:33:55;19.50;99.90
19483;DHT22;9882;51.166;6.992;2022-09-09T12:36:33;19.60;99.90
19483;DHT22;9882;51.166;6.992;2022-09-09T12:39:14;19.70;99.90
19483;DHT22;9882;51.166;6.992;2022-09-09T12:41:51;19.60;99.90
19483;DHT22;9882;51.166;6.992;2022-09-09T12:44:25;19.70;99.90
19483;DHT22;9882;51.166;6.992;2022-09-09T12:46:57;19.80;99.90
19483;DHT22;9882;51.166;6.992;2022-09-09T12:49:33;19.90;99.90
19483;DHT22;9882;51.166;6.992;2022-09-09T12:52:07;20.10;99.90
19483;DHT22;9882;51.166;6.992;2022-09-09T12:54:37;20.20;99.90
19483;DHT22;9882;51.166;6.992;2022-09-09T12:57:12;20.10;99.90
19483;DHT22;9882;51.166;6.992;2022-09-09T12:59:43;20.00;99.90
19483;DHT22;9882;51.166;6.992;2022-09-09T13:02:21;19.90;99.90
19483;DHT22;9882;51.166;6.992;2022-09-09T13:04:50;19.90;99.90
19483;DHT22;9882;51.166;6.992;2022-09-09T13:07:21;19.70;99.90
19483;DHT22;9882;51.166;6.992;2022-09-09T13:09:52;19.30;99.90
19483;DHT22;9882;51.166;6.992;2022-09-09T13:12:22;17.60;99.90
19483;DHT22;9882;51.166;6.992;2022-09-09T13:14:54;18.00;99.90
19483;DHT22;9882;51.166;6.992;2022-09-09T13:17:24;17.80;99.90
19483;DHT22;9882;51.166;6.992;2022-09-09T13:19:57;18.40;99.90
19483;DHT22;9882;51.166;6.992;2022-09-09T13:22:31;18.80;99.90
19483;DHT22;9882;51.166;6.992;2022-09-09T13:25:05;19.30;99.90
19483;DHT22;9882;51.166;6.992;2022-09-09T13:27:35;19.10;99.90
19483;DHT22;9882;51.166;6.992;2022-09-09T13:30:23;19.20;99.90
19483;DHT22;9882;51.166;6.992;2022-09-09T13:33:20;19.40;99.90
19483;DHT22;9882;51.166;6.992;2022-09-09T13:35:52;19.60;99.90
19483;DHT22;9882;51.166;6.992;2022-09-09T13:38:29;19.60;99.90
19483;DHT22;9882;51.166;6.992;2022-09-09T13:41:01;19.60;99.90
19483;DHT22;9882;51.166;6.992;2022-09-09T13:43:35;19.80;99.90
19483;DHT22;9882;51.166;6.992;2022-09-09T13:46:21;19.90;99.90
19483;DHT22;9882;51.166;6.992;2022-09-09T13:48:56;20.10;99.90
19483;DHT22;9882;51.166;6.992;2022-09-09T13:51:33;20.70;99.90
19483;DHT22;9882;51.166;6.992;2022-09-09T13:54:06;21.60;99.90
19483;DHT22;9882;51.166;6.992;2022-09-09T13:56:38;21.80;99.90
19483;DHT22;9882;51.166;6.992;2022-09-09T13:59:13;21.50;99.90
19483;DHT22;9882;51.166;6.992;2022-09-09T14:01:42;21.30;99.90
19483;DHT22;9882;51.166;6.992;2022-09-09T14:04:11;21.40;99.90
19483;DHT22;9882;51.166;6.992;2022-09-09T14:06:40;21.30;99.90
19483;DHT22;9882;51.166;6.992;2022-09-09T14:09:13;21.40;99.90
19483;DHT22;9882;51.166;6.992;2022-09-09T14:11:43;21.50;99.90
19483;DHT22;9882;51.166;6.992;2022-09-09T14:14:12;21.80;99.90
19483;DHT22;9882;51.166;6.992;2022-09-09T14:16:41;21.40;99.90
19483;DHT22;9882;51.166;6.992;2022-09-09T14:19:10;21.00;99.90
19483;DHT22;9882;51.166;6.992;2022-09-09T14:21:39;20.90;99.90
19483;DHT22;9882;51.166;6.992;2022-09-09T14:24:08;20.90;99.90
19483;DHT22;9882;51.166;6.992;2022-09-09T14:26:38;20.80;99.90
19483;DHT22;9882;51.166;6.992;2022-09-09T14:29:07;20.90;99.90
19483;DHT22;9882;51.166;6.992;2022-09-09T14:31:35;21.00;99.90
19483;DHT22;9882;51.166;6.992;2022-09-09T14:34:04;21.20;99.90
19483;DHT22;9882;51.166;6.992;2022-09-09T14:36:33;21.00;99.90
19483;DHT22;9882;51.166;6.992;2022-09-09T14:39:02;21.00;99.90
19483;DHT22;9882;51.166;6.992;2022-09-09T14:41:31;20.70;99.90
19483;DHT22;9882;51.166;6.992;2022-09-09T14:44:01;20.60;99.90
19483;DHT22;9882;51.166;6.992;2022-09-09T14:46:30;20.50;99.90
19483;DHT22;9882;51.166;6.992;2022-09-09T14:49:00;20.40;99.90
19483;DHT22;9882;51.166;6.992;2022-09-09T14:51:29;20.20;99.90
19483;DHT22;9882;51.166;6.992;2022-09-09T14:53:59;20.10;99.90
19483;DHT22;9882;51.166;6.992;2022-09-09T14:56:31;20.10;99.90
19483;DHT22;9882;51.166;6.992;2022-09-09T14:59:03;20.00;99.90
19483;DHT22;9882;51.166;6.992;2022-09-09T15:01:32;19.80;99.90
19483;DHT22;9882;51.166;6.992;2022-09-09T15:04:03;19.90;99.90
19483;DHT22;9882;51.166;6.992;2022-09-09T15:06:34;19.60;99.90
19483;DHT22;9882;51.166;6.992;2022-09-09T15:09:05;19.70;99.90
19483;DHT22;9882;51.166;6.992;2022-09-09T15:11:36;19.90;99.90
19483;DHT22;9882;51.166;6.992;2022-09-09T15:14:08;18.90;99.90
19483;DHT22;9882;51.166;6.992;2022-09-09T15:16:38;18.20;99.90
19483;DHT22;9882;51.166;6.992;2022-09-09T15:19:07;18.50;99.90
19483;DHT22;9882;51.166;6.992;2022-09-09T15:21:37;18.40;99.90
19483;DHT22;9882;51.166;6.992;2022-09-09T15:24:06;18.80;99.90
19483;DHT22;9882;51.166;6.992;2022-09-09T15:26:37;18.70;99.90
19483;DHT22;9882;51.166;6.992;2022-09-09T15:29:08;19.40;99.90
19483;DHT22;9882;51.166;6.992;2022-09-09T15:31:37;19.70;99.90
19483;DHT22;9882;51.166;6.992;2022-09-09T15:34:07;19.90;99.90
19483;DHT22;9882;51.166;6.992;2022-09-09T15:36:37;20.10;99.90
19483;DHT22;9882;51.166;6.992;2022-09-09T15:39:08;20.20;99.90
19483;DHT22;9882;51.166;6.992;2022-09-09T15:41:40;20.20;99.90
19483;DHT22;9882;51.166;6.992;2022-09-09T15:44:11;20.20;99.90
19483;DHT22;9882;51.166;6.992;2022-09-09T15:46:41;20.20;99.90
19483;DHT22;9882;51.166;6.992;2022-09-09T15:49:11;20.20;99.90
19483;DHT22;9882;51.166;6.992;2022-09-09T15:51:43;20.20;99.90
19483;DHT22;9882;51.166;6.992;2022-09-09T15:54:13;20.10;99.90
19483;DHT22;9882;51.166;6.992;2022-09-09T15:56:44;20.10;99.90
19483;DHT22;9882;51.166;6.992;2022-09-09T15:59:15;20.10;99.90
19483;DHT22;9882;51.166;6.992;2022-09-09T16:01:44;20.10;99.90
19483;DHT22;9882;51.166;6.992;2022-09-09T16:04:14;20.20;99.90
19483;DHT22;9882;51.166;6.992;2022-09-09T16:06:47;20.20;99.90
19483;DHT22;9882;51.166;6.992;2022-09-09T16:09:16;20.30;99.90
19483;DHT22;9882;51.166;6.992;2022-09-09T16:11:45;20.20;99.90
19483;DHT22;9882;51.166;6.992;2022-09-09T16:14:16;20.30;99.90
19483;DHT22;9882;51.166;6.992;2022-09-09T16:16:45;20.20;99.90
19483;DHT22;9882;51.166;6.992;2022-09-09T16:19:14;20.20;99.90
19483;DHT22;9882;51.166;6.992;2022-09-09T16:21:45;20.20;99.90
19483;DHT22;9882;51.166;6.992;2022-09-09T16:24:16;20.20;99.90
19483;DHT22;9882;51.166;6.992;2022-09-09T16:26:47;20.10;99.90
19483;DHT22;9882;51.166;6.992;2022-09-09T16:29:19;20.10;99.90
19483;DHT22;9882;51.166;6.992;2022-09-09T16:31:49;20.10;99.90
19483;DHT22;9882;51.166;6.992;2022-09-09T16:34:20;20.20;99.90
19483;DHT22;9882;51.166;6.992;2022-09-09T16:36:49;20.20;99.90
19483;DHT22;9882;51.166;6.992;2022-09-09T16:39:19;19.90;99.90
19483;DHT22;9882;51.166;6.992;2022-09-09T16:41:49;20.00;99.90
19483;DHT22;9882;51.166;6.992;2022-09-09T16:44:21;19.90;99.90
19483;DHT22;9882;51.166;6.992;2022-09-09T16:46:50;19.90;99.90
19483;DHT22;9882;51.166;6.992;2022-09-09T16:49:23;19.90;99.90
19483;DHT22;9882;51.166;6.992;2022-09-09T16:51:52;19.80;99.90
19483;DHT22;9882;51.166;6.992;2022-09-09T16:54:21;19.60;99.90
19483;DHT22;9882;51.166;6.992;2022-09-09T16:56:52;19.60;99.90
19483;DHT22;9882;51.166;6.992;2022-09-09T16:59:22;19.50;99.90
19483;DHT22;9882;51.166;6.992;2022-09-09T17:01:52;19.50;99.90
19483;DHT22;9882;51.166;6.992;2022-09-09T17:04:25;19.40;99.90
19483;DHT22;9882;51.166;6.992;2022-09-09T17:06:55;19.40;99.90
19483;DHT22;9882;51.166;6.992;2022-09-09T17:09:27;19.40;99.90
19483;DHT22;9882;51.166;6.992;2022-09-09T17:11:59;19.40;99.90
19483;DHT22;9882;51.166;6.992;2022-09-09T17:14:29;19.30;99.90
19483;DHT22;9882;51.166;6.992;2022-09-09T17:16:59;19.20;99.90
19483;DHT22;9882;51.166;6.992;2022-09-09T17:19:40;19.30;99.90
19483;DHT22;9882;51.166;6.992;2022-09-09T17:22:09;19.30;99.90
19483;DHT22;9882;51.166;6.992;2022-09-09T17:24:42;19.20;99.90
19483;DHT22;9882;51.166;6.992;2022-09-09T17:27:11;19.30;99.90
19483;DHT22;9882;51.166;6.992;2022-09-09T17:29:42;19.00;99.90
19483;DHT22;9882;51.166;6.992;2022-09-09T17:32:12;19.20;99.90
19483;DHT22;9882;51.166;6.992;2022-09-09T17:34:45;19.20;99.90
19483;DHT22;9882;51.166;6.992;2022-09-09T17:37:14;19.10;99.90
19483;DHT22;9882;51.166;6.992;2022-09-09T17:39:43;19.20;99.90
19483;DHT22;9882;51.166;6.992;2022-09-09T17:42:12;19.30;99.90
19483;DHT22;9882;51.166;6.992;2022-09-09T17:44:43;19.30;99.90
19483;DHT22;9882;51.166;6.992;2022-09-09T17:47:12;19.20;99.90
19483;DHT22;9882;51.166;6.992;2022-09-09T17:49:41;19.30;99.90
19483;DHT22;9882;51.166;6.992;2022-09-09T17:52:11;19.40;99.90
19483;DHT22;9882;51.166;6.992;2022-09-09T17:54:40;19.40;99.90
19483;DHT22;9882;51.166;6.992;2022-09-09T17:57:09;19.20;99.90
19483;DHT22;9882;51.166;6.992;2022-09-09T17:59:37;19.40;99.90
19483;DHT22;9882;51.166;6.992;2022-09-09T18:02:11;19.30;99.90
19483;DHT22;9882;51.166;6.992;2022-09-09T18:04:40;19.20;99.90
19483;DHT22;9882;51.166;6.992;2022-09-09T18:07:09;19.20;99.90
19483;DHT22;9882;51.166;6.992;2022-09-09T18:09:39;19.00;99.90
19483;DHT22;9882;51.166;6.992;2022-09-09T18:12:08;19.10;99.90
19483;DHT22;9882;51.166;6.992;2022-09-09T18:14:36;19.10;99.90
19483;DHT22;9882;51.166;6.992;2022-09-09T18:17:05;19.20;99.90
19483;DHT22;9882;51.166;6.992;2022-09-09T18:19:36;19.00;99.90
19483;DHT22;9882;51.166;6.992;2022-09-09T18:22:05;18.90;99.90
19483;DHT22;9882;51.166;6.992;2022-09-09T18:24:34;18.60;99.90
19483;DHT22;9882;51.166;6.992;2022-09-09T18:27:03;18.70;99.90
19483;DHT22;9882;51.166;6.992;2022-09-09T18:29:31;18.80;99.90
19483;DHT22;9882;51.166;6.992;2022-09-09T18:32:00;18.90;99.90
19483;DHT22;9882;51.166;6.992;2022-09-09T18:34:29;18.40;99.90
19483;DHT22;9882;51.166;6.992;2022-09-09T18:36:59;18.60;99.90
19483;DHT22;9882;51.166;6.992;2022-09-09T18:39:28;18.80;99.90
19483;DHT22;9882;51.166;6.992;2022-09-09T18:41:58;18.50;99.90
19483;DHT22;9882;51.166;6.992;2022-09-09T18:44:30;18.70;99.90
19483;DHT22;9882;51.166;6.992;2022-09-09T18:46:59;18.50;99.90
19483;DHT22;9882;51.166;6.992;2022-09-09T18:49:28;18.20;99.90
19483;DHT22;9882;51.166;6.992;2022-09-09T18:51:58;18.20;99.90
19483;DHT22;9882;51.166;6.992;2022-09-09T18:54:29;18.10;99.90
19483;DHT22;9882;51.166;6.992;2022-09-09T18:56:59;18.20;99.90
19483;DHT22;9882;51.166;6.992;2022-09-09T18:59:29;18.00;99.90
19483;DHT22;9882;51.166;6.992;2022-09-09T19:01:57;18.00;99.90
19483;DHT22;9882;51.166;6.992;2022-09-09T19:04:26;18.30;99.90
19483;DHT22;9882;51.166;6.992;2022-09-09T19:06:54;18.10;99.90
19483;DHT22;9882;51.166;6.992;2022-09-09T19:09:27;18.20;99.90
19483;DHT22;9882;51.166;6.992;2022-09-09T19:11:57;18.30;99.90
19483;DHT22;9882;51.166;6.992;2022-09-09T19:14:27;18.30;99.90
19483;DHT22;9882;51.166;6.992;2022-09-09T19:16:56;18.40;99.90
19483;DHT22;9882;51.166;6.992;2022-09-09T19:19:27;18.50;99.90
19483;DHT22;9882;51.166;6.992;2022-09-09T19:21:56;18.30;99.90
19483;DHT22;9882;51.166;6.992;2022-09-09T19:24:28;18.40;99.90
19483;DHT22;9882;51.166;6.992;2022-09-09T19:26:58;18.30;99.90
19483;DHT22;9882;51.166;6.992;2022-09-09T19:29:29;18.30;99.90
19483;DHT22;9882;51.166;6.992;2022-09-09T19:31:59;18.30;99.90
19483;DHT22;9882;51.166;6.992;2022-09-09T19:34:47;18.30;99.90
19483;DHT22;9882;51.166;6.992;2022-09-09T19:37:16;18.20;99.90
19483;DHT22;9882;51.166;6.992;2022-09-09T19:39:47;18.30;99.90
19483;DHT22;9882;51.166;6.992;2022-09-09T19:42:15;18.30;99.90
19483;DHT22;9882;51.166;6.992;2022-09-09T19:44:44;18.40;99.90
19483;DHT22;9882;51.166;6.992;2022-09-09T19:47:16;18.20;99.90
19483;DHT22;9882;51.166;6.992;2022-09-09T19:49:46;18.10;99.90
19483;DHT22;9882;51.166;6.992;2022-09-09T19:52:17;18.10;99.90
19483;DHT22;9882;51.166;6.992;2022-09-09T19:54:47;18.20;99.90
19483;DHT22;9882;51.166;6.992;2022-09-09T19:57:15;18.30;99.90
19483;DHT22;9882;51.166;6.992;2022-09-09T19:59:45;18.30;99.90
19483;DHT22;9882;51.166;6.992;2022-09-09T20:02:14;18.20;99.90
19483;DHT22;9882;51.166;6.992;2022-09-09T20:04:43;18.10;99.90
19483;DHT22;9882;51.166;6.992;2022-09-09T20:07:11;18.10;99.90
19483;DHT22;9882;51.166;6.992;2022-09-09T20:09:40;18.20;99.90
19483;DHT22;9882;51.166;6.992;2022-09-09T20:12:10;18.20;99.90
19483;DHT22;9882;51.166;6.992;2022-09-09T20:14:39;18.20;99.90
19483;DHT22;9882;51.166;6.992;2022-09-09T20:17:08;18.00;99.90
19483;DHT22;9882;51.166;6.992;2022-09-09T20:19:37;18.00;99.90
19483;DHT22;9882;51.166;6.992;2022-09-09T20:22:06;18.10;99.90